Currently 56°F in Hemet, California, USA
56°F
56°F / 49°F
calm
0.00"
Tuesday, February 18, 2020 8:26 AM PST

Hemet, California Weather Summary
Last 36 Hours

Temperature Winds Hourly Humidity Dewpoint
Time Report Norm Report Norm Max Gusts Precip. Rpt. Norm Rpt. Norm Pressure
1Tue 08:26 AM  55.9°F  52°F  calm  1 mph  none  0.00"  51%  57%  37°F  36°F  30.02"
2Tue 08:25 AM  55.9°F  52°F  calm  calm  none  ----  51%  57%  37°F  36°F  30.02"
Tue 08:00 AM  53.8°F  50°F  calm  calm  none  0.00"  43%  59%  31°F  35°F  30.02"
3Tue 07:03 AM  48.9°F  47°F  calm  1 mph  none  ----  49%  61%  30°F  33°F  30.00"
Tue 07:00 AM  49.1°F  47°F  calm  1 mph  none  0.00"  49%  61%  30°F  33°F  30.00"
Tue 06:00 AM  52.0°F  46°F  calm  1 mph  none  0.00"  40%  60%  27°F  33°F  29.98"
Tue 05:00 AM  53.1°F  47°F  calm  1 mph  none  0.00"  39%  61%  28°F  33°F  29.98"
Tue 04:00 AM  53.1°F  47°F  calm  1 mph  none  0.00"  41%  61%  29°F  34°F  29.97"
Tue 03:00 AM  53.1°F  47°F  calm  1 mph  none  0.00"  41%  61%  29°F  34°F  29.97"
Tue 02:00 AM  53.1°F  48°F  calm  1 mph  none  0.00"  42%  61%  30°F  34°F  29.97"
Tue 01:00 AM  54.1°F  48°F  calm  1 mph  none  0.00"  41%  61%  30°F  35°F  29.99"
Tue 12:00 AM  53.2°F  49°F  calm  1 mph  none  0.00"  44%  61%  31°F  35°F  29.99"
Mon 11:00 PM  53.6°F  49°F  calm  1 mph  none  0.00"  45%  61%  32°F  36°F  29.99"
Mon 10:00 PM  54.7°F  50°F  calm  1 mph  none  0.00"  44%  60%  32°F  36°F  30.00"
Mon 09:00 PM  55.0°F  51°F  calm  1 mph  none  0.00"  47%  59%  34°F  36°F  29.99"
Mon 08:00 PM  57.4°F  52°F  calm  1 mph  none  0.00"  44%  58%  35°F  37°F  29.97"
Mon 07:00 PM  59.5°F  53°F  calm  1 mph  none  0.00"  45%  55%  37°F  37°F  29.95"
Mon 06:00 PM  62.8°F  56°F  calm  1 mph  1 mph  0.00"  40%  52%  37°F  38°F  29.93"
Mon 05:00 PM  70.9°F  60°F  calm  1 mph  7 mph  0.00"  31%  45%  38°F  38°F  29.92"
Mon 04:00 PM  73.8°F  62°F  4 mph SW  3 mph  9 mph  0.00"  24%  41%  33°F  37°F  29.92"
Mon 03:00 PM  73.2°F  63°F  4 mph W  3 mph  8 mph  0.00"  24%  39%  33°F  37°F  29.92"
Mon 02:00 PM  73.2°F  63°F  4 mph W  3 mph  7 mph  0.00"  24%  39%  33°F  37°F  29.92"
Mon 01:00 PM  70.9°F  63°F  3 mph W  2 mph  8 mph  0.00"  25%  39%  32°F  37°F  29.94"
Mon 12:00 PM  68.4°F  61°F  calm  2 mph  6 mph  0.00"  27%  42%  32°F  37°F  29.96"
Mon 11:00 AM  65.1°F  59°F  calm  2 mph  none  0.00"  32%  46%  33°F  37°F  29.98"
Mon 10:00 AM  63.0°F  56°F  calm  1 mph  none  0.00"  35%  50%  34°F  37°F  29.99"
Mon 09:00 AM  56.7°F  54°F  calm  1 mph  none  0.00"  45%  53%  35°F  37°F  30.00"
Mon 08:00 AM  53.2°F  50°F  calm  calm  none  0.00"  42%  58%  30°F  35°F  30.01"
Mon 07:00 AM  48.7°F  47°F  calm  1 mph  none  0.00"  49%  60%  30°F  33°F  29.99"
Mon 06:00 AM  47.7°F  47°F  calm  1 mph  none  0.00"  56%  59%  32°F  33°F  29.99"
Mon 05:00 AM  46.6°F  47°F  calm  1 mph  none  0.00"  60%  60%  33°F  33°F  29.99"
Mon 04:00 AM  48.9°F  47°F  calm  1 mph  none  0.00"  55%  60%  33°F  33°F  29.99"
Mon 03:00 AM  48.7°F  48°F  calm  1 mph  none  0.00"  54%  60%  32°F  34°F  29.99"
Mon 02:00 AM  49.3°F  48°F  calm  1 mph  none  0.00"  50%  60%  31°F  34°F  30.01"
Mon 01:00 AM  49.5°F  48°F  calm  1 mph  none  0.00"  48%  60%  30°F  34°F  30.03"
Mon 12:00 AM  49.5°F  49°F  calm  1 mph  none  0.00"  49%  60%  30°F  35°F  30.03"
Sun 11:00 PM  50.7°F  49°F  calm  1 mph  none  0.00"  46%  60%  30°F  35°F  30.04"
Sun 10:00 PM  51.4°F  50°F  calm  1 mph  none  0.00"  46%  59%  30°F  36°F  30.06"
Sun 09:00 PM  52.5°F  51°F  calm  1 mph  none  0.00"  44%  58%  30°F  36°F  30.06"

  1. Current weather data. No green row appears if the current weather data is also the high or low for the current day.
  2. High temperature for the current day.
  3. Low temperature for the current day.

The Hemet weather pages are a service of WeatherCurrents. Hemet, California is located in the San Jacinto Valley, in western Riverside County, at the foot of the San Jacinto mountains.
Copyright ©2020  WeatherCurrents. All rights reserved. - Submit questions and comments - Privacy Policy

This page automatically refreshes every 10 minutes.